Time;durP1;ratioP1;P1;durP2;ratioP2;P2;SDS_P1;SDS_P2;PMS_P1;PMS_P2;Temp;Humidity;BMP_temperature;BMP_pressure;BME280_temperature;BME280_humidity;BME280_pressure;Samples;Min_cycle;Max_cycle;Signal;HPM_P1;HPM_P2
2023/07/28 05:22:34;;;;;;;18.60;12.70;;;;;;;17.22;100.00;97922.92;80296;1299;3011700;-66
2023/07/28 05:25:01;;;;;;;11.70;8.60;;;;;;;17.96;100.00;97937.39;79165;1304;3012954;-68
2023/07/28 05:27:29;;;;;;;12.80;8.40;;;;;;;19.16;100.00;97973.53;79146;1301;3013226;-67
2023/07/28 05:29:57;;;;;;;10.90;8.70;;;;;;;19.51;100.00;97993.92;78222;1304;3052706;-67
2023/07/28 05:32:24;;;;;;;15.10;8.80;;;;;;;19.41;99.68;97999.16;79096;1306;3013118;-70
2023/07/28 05:35:15;;;;;;;23.70;8.70;;;;;;;19.00;99.87;97997.34;77015;1303;3058079;-67
2023/07/28 05:37:42;;;;;;;9.10;6.90;;;;;;;18.83;100.00;97995.02;78236;1298;3053236;-65
2023/07/28 05:40:10;;;;;;;11.60;8.40;;;;;;;19.26;99.82;97995.67;79380;1304;3013397;-69
2023/07/28 05:42:37;;;;;;;11.00;9.50;;;;;;;19.63;97.85;97997.02;79374;1297;3013582;-68
2023/07/28 05:45:05;;;;;;;17.70;10.80;;;;;;;19.32;97.73;97998.30;78233;1301;3069266;-66
2023/07/28 05:47:32;;;;;;;14.60;9.80;;;;;;;19.11;99.05;97995.29;79545;1298;3013282;-67
2023/07/28 05:50:00;;;;;;;9.60;7.40;;;;;;;19.01;100.00;97999.62;79494;1300;3013138;-69
2023/07/28 05:52:28;;;;;;;11.50;8.00;;;;;;;19.50;99.01;97998.94;78370;1298;3054390;-70
2023/07/28 05:54:54;;;;;;;12.90;9.20;;;;;;;19.85;95.98;97984.58;79399;1301;3013213;-70
2023/07/28 05:57:21;;;;;;;14.40;10.10;;;;;;;19.60;95.80;97974.84;79489;1295;3011888;-67
2023/07/28 05:59:49;;;;;;;11.50;9.90;;;;;;;19.37;97.74;97968.17;78252;1300;3026603;-67
2023/07/28 06:02:16;;;;;;;11.80;9.40;;;;;;;19.10;99.11;97960.27;79574;1298;3013273;-69
2023/07/28 06:04:55;;;;;;;11.00;8.40;;;;;;;18.77;100.00;97953.98;78260;1299;3049930;-69
2023/07/28 06:07:22;;;;;;;13.20;8.40;;;;;;;19.21;99.96;97935.50;79656;1296;3018458;-68
2023/07/28 06:09:48;;;;;;;14.20;10.10;;;;;;;19.18;99.18;97935.95;79403;1298;3013412;-69
2023/07/28 06:12:16;;;;;;;14.60;10.20;;;;;;;18.83;100.00;97933.30;78184;1302;3025048;-68
2023/07/28 06:14:43;;;;;;;13.40;9.50;;;;;;;18.79;100.00;97949.37;79540;1298;3018721;-69
2023/07/28 06:17:11;;;;;;;14.10;7.70;;;;;;;18.73;100.00;97949.36;79460;1298;3011654;-68
2023/07/28 06:19:39;;;;;;;10.50;7.50;;;;;;;18.97;99.77;97935.34;78250;1303;3050936;-67
2023/07/28 06:22:06;;;;;;;13.10;9.10;;;;;;;19.04;99.05;97916.65;79580;1300;3018491;-70
2023/07/28 06:24:38;;;;;;;11.90;8.60;;;;;;;18.93;99.75;97877.98;78252;1303;3051980;-68
2023/07/28 06:27:08;;;;;;;13.10;8.80;;;;;;;18.66;100.00;97872.17;79627;1299;3013260;-67
2023/07/28 06:29:38;;;;;;;10.80;6.50;;;;;;;18.50;100.00;97891.92;78241;1297;3050923;-69
2023/07/28 06:32:05;;;;;;;8.80;6.90;;;;;;;18.88;100.00;97902.39;79541;1296;3018380;-69
2023/07/28 06:34:32;;;;;;;10.50;7.90;;;;;;;18.97;99.64;97916.60;79487;1297;3011956;-68
2023/07/28 06:37:00;;;;;;;9.80;8.00;;;;;;;18.97;99.37;97933.80;78496;1298;3050264;-70
2023/07/28 06:39:27;;;;;;;10.70;7.10;;;;;;;18.69;100.00;97949.14;79549;1300;3013189;-71
2023/07/28 06:41:53;;;;;;;10.30;6.10;;;;;;;18.83;100.00;97965.60;79419;1300;3011876;-66
2023/07/28 06:44:22;;;;;;;10.70;6.10;;;;;;;19.29;98.21;97987.95;78196;1296;3049883;-71
2023/07/28 06:46:49;;;;;;;8.80;5.90;;;;;;;19.27;96.25;97999.03;79506;1298;3013417;-68
2023/07/28 06:49:16;;;;;;;9.60;7.20;;;;;;;19.19;96.53;98005.55;79484;1297;3011915;-67
2023/07/28 06:51:44;;;;;;;11.80;7.00;;;;;;;19.11;97.32;98015.35;78168;1298;3050661;-70
2023/07/28 06:54:12;;;;;;;7.80;5.20;;;;;;;19.01;98.53;98025.34;79556;1299;3013127;-68
2023/07/28 06:56:40;;;;;;;6.50;5.40;;;;;;;19.33;97.00;98023.14;79523;1300;3011786;-67
2023/07/28 06:59:09;;;;;;;7.30;5.50;;;;;;;19.73;94.99;98017.46;78202;1297;3051442;-68
2023/07/28 07:01:36;;;;;;;7.50;5.90;;;;;;;19.40;94.44;98020.77;79527;1295;3013522;-69
2023/07/28 07:04:02;;;;;;;10.20;6.20;;;;;;;19.07;96.27;98015.13;79453;1296;3012941;-67
2023/07/28 07:06:31;;;;;;;7.60;5.20;;;;;;;18.87;97.22;98017.84;78201;1300;3051388;-69
2023/07/28 07:08:58;;;;;;;7.50;5.30;;;;;;;18.77;98.76;98012.77;79560;1297;3013156;-68
2023/07/28 07:11:24;;;;;;;9.00;6.50;;;;;;;19.23;97.18;98000.81;79332;1298;3014115;-67
2023/07/28 07:13:53;;;;;;;13.30;9.40;;;;;;;19.39;96.01;97994.34;78367;1300;3051366;-70
2023/07/28 07:16:19;;;;;;;12.00;9.80;;;;;;;19.25;96.92;97979.24;79361;1298;3013601;-67
2023/07/28 07:18:46;;;;;;;15.10;12.60;;;;;;;18.93;98.43;97973.95;79526;1299;3011650;-69
2023/07/28 07:21:14;;;;;;;14.70;11.20;;;;;;;18.57;99.86;97969.17;78415;1297;3028748;-69
2023/07/28 07:23:40;;;;;;;14.30;11.20;;;;;;;18.78;100.00;97961.39;79722;1294;3018862;-70
2023/07/28 07:26:26;;;;;;;11.90;10.40;;;;;;;18.89;99.66;97968.20;78310;1299;3070703;-70
2023/07/28 07:28:53;;;;;;;11.40;9.40;;;;;;;18.86;99.81;97977.14;79781;1295;3013039;-67
2023/07/28 07:31:19;;;;;;;11.00;8.30;;;;;;;18.73;99.90;97992.80;79515;1299;3011522;-70
2023/07/28 07:33:47;;;;;;;10.20;7.40;;;;;;;18.61;100.00;97999.92;78308;1295;3025400;-69
2023/07/28 07:36:15;;;;;;;12.90;9.10;;;;;;;18.96;99.43;97997.61;79551;1298;3013066;-69
2023/07/28 07:38:41;;;;;;;11.40;8.00;;;;;;;19.07;97.96;97990.90;79608;1300;3011866;-70
2023/07/28 07:41:11;;;;;;;8.10;5.80;;;;;;;18.88;97.84;97992.48;78285;1299;3069411;-70
2023/07/28 07:43:37;;;;;;;5.50;4.10;;;;;;;18.54;99.54;97998.55;79591;1294;3013712;-71
2023/07/28 07:46:04;;;;;;;5.30;2.60;;;;;;;18.43;100.00;98007.08;79658;1297;3011789;-71
2023/07/28 07:48:32;;;;;;;5.20;3.30;;;;;;;18.66;99.84;98018.16;78291;1300;3053342;-71
2023/07/28 07:50:58;;;;;;;4.10;3.30;;;;;;;18.88;98.76;98013.91;79503;1298;3012770;-71
2023/07/28 07:53:25;;;;;;;4.20;3.60;;;;;;;18.69;98.71;98003.08;79597;1294;3013862;-71
2023/07/28 07:55:52;;;;;;;4.60;1.90;;;;;;;18.40;99.95;98001.06;78393;1295;3026784;-71
2023/07/28 07:58:19;;;;;;;4.30;2.70;;;;;;;18.45;100.00;97996.97;79534;1294;3018456;-70
2023/07/28 08:00:45;;;;;;;3.50;2.80;;;;;;;18.90;99.42;97991.38;79406;1294;3011561;-71
2023/07/28 08:03:13;;;;;;;3.80;3.10;;;;;;;19.15;97.43;97991.41;78312;1294;3028757;-73
2023/07/28 08:05:40;;;;;;;4.70;3.70;;;;;;;19.09;97.75;97992.92;79850;1300;3012910;-71
2023/07/28 08:08:07;;;;;;;3.50;3.00;;;;;;;19.05;97.59;97991.02;79637;1299;3011513;-73
2023/07/28 08:10:35;;;;;;;3.30;3.00;;;;;;;19.26;96.69;97987.33;78528;1295;3025917;-71
2023/07/28 08:13:03;;;;;;;3.60;3.10;;;;;;;19.31;95.65;97986.66;79666;1294;3020900;-75
2023/07/28 08:15:30;;;;;;;3.70;2.90;;;;;;;19.42;94.85;97985.86;79703;1295;3011629;-74
2023/07/28 08:17:58;;;;;;;4.50;2.90;;;;;;;19.31;94.81;97991.48;78267;1299;3052991;-77
2023/07/28 08:20:25;;;;;;;3.50;2.60;;;;;;;18.87;97.05;97997.52;79540;1299;3018453;-71
2023/07/28 08:22:52;;;;;;;4.30;3.30;;;;;;;19.33;95.68;97994.77;79662;1298;3011644;-69
2023/07/28 08:25:22;;;;;;;5.90;3.80;;;;;;;19.54;93.99;97980.88;78505;1300;3026897;-72
2023/07/28 08:27:49;;;;;;;6.70;4.60;;;;;;;19.30;95.03;97991.80;79590;1295;3012769;-69
2023/07/28 08:30:18;;;;;;;5.30;4.50;;;;;;;19.11;96.43;97992.56;79110;1294;3013555;-70
2023/07/28 08:32:44;;;;;;;5.60;3.30;;;;;;;19.08;96.96;97987.88;79784;1298;3013693;-74
2023/07/28 08:35:11;;;;;;;5.10;3.90;;;;;;;19.51;94.92;97988.84;79561;1294;3011925;-70
2023/07/28 08:37:39;;;;;;;4.80;4.00;;;;;;;19.58;93.17;97984.29;78353;1308;3026299;-72
2023/07/28 08:40:06;;;;;;;4.80;3.90;;;;;;;19.63;92.64;97981.80;79563;1295;3011580;-73
2023/07/28 08:42:37;;;;;;;5.60;4.30;;;;;;;19.39;93.53;97987.00;79672;1295;3011772;-73
2023/07/28 08:45:07;;;;;;;3.90;3.50;;;;;;;19.00;96.36;97979.24;78417;1299;3058471;-72
2023/07/28 08:47:36;;;;;;;4.60;3.50;;;;;;;19.29;94.85;97984.67;79698;1294;3011581;-71
2023/07/28 08:50:05;;;;;;;7.60;5.10;;;;;;;19.17;94.93;97985.67;79022;1298;3011624;-75
2023/07/28 08:52:32;;;;;;;9.40;6.50;;;;;;;18.92;96.13;97979.61;79593;1297;3013545;-70
2023/07/28 08:54:59;;;;;;;7.60;5.90;;;;;;;18.67;98.65;97986.23;79635;1296;3011453;-71
2023/07/28 08:57:27;;;;;;;7.30;5.30;;;;;;;18.71;98.81;97984.58;78387;1299;3070147;-72
2023/07/28 08:59:54;;;;;;;5.40;4.10;;;;;;;19.16;96.77;97991.64;79739;1294;3020452;-67
2023/07/28 09:02:21;;;;;;;5.50;4.40;;;;;;;19.05;95.22;97988.73;79601;1300;3011812;-69
2023/07/28 09:04:49;;;;;;;7.50;4.70;;;;;;;18.88;95.70;97996.91;78360;1295;3026206;-68
2023/07/28 09:07:16;;;;;;;4.20;2.80;;;;;;;18.55;97.26;97998.67;79544;1300;3013131;-69
2023/07/28 09:09:43;;;;;;;5.20;3.50;;;;;;;18.52;98.77;97998.96;79735;1300;3011507;-70
2023/07/28 09:12:10;;;;;;;5.70;2.90;;;;;;;18.90;96.31;97999.69;78431;1295;3026113;-70
2023/07/28 09:14:37;;;;;;;6.10;4.10;;;;;;;18.93;94.97;98009.61;79614;1295;3013107;-70
2023/07/28 09:17:09;;;;;;;4.30;3.70;;;;;;;18.74;95.70;98007.27;79667;1298;3013164;-70
2023/07/28 09:19:51;;;;;;;4.30;3.30;;;;;;;18.50;97.89;98005.36;78461;1294;3053361;-69
2023/07/28 09:22:22;;;;;;;4.90;3.60;;;;;;;19.02;95.65;98004.46;78487;1298;3050718;-70
2023/07/28 09:24:48;;;;;;;5.90;4.20;;;;;;;19.16;94.23;98004.58;79737;1297;3012148;-72
2023/07/28 09:27:22;;;;;;;5.60;3.10;;;;;;;18.89;95.44;98011.84;79264;1300;3011912;-69
2023/07/28 09:29:52;;;;;;;3.60;2.50;;;;;;;18.70;96.61;98012.17;79729;1300;3011164;-73
2023/07/28 09:32:32;;;;;;;1.80;1.70;;;;;;;18.65;97.22;98010.42;78526;1300;3052408;-68
2023/07/28 09:35:11;;;;;;;1.80;1.70;;;;;;;19.02;94.99;98016.45;78307;1295;3056226;-69
2023/07/28 09:37:40;;;;;;;2.50;1.60;;;;;;;19.19;93.34;98012.03;78573;1298;3050422;-68
2023/07/28 09:40:11;;;;;;;2.20;1.60;;;;;;;18.79;95.56;98018.01;79500;1300;3013987;-72
2023/07/28 09:42:40;;;;;;;2.10;1.90;;;;;;;18.61;96.71;98010.20;78237;1300;3052512;-70
2023/07/28 09:45:08;;;;;;;3.10;1.60;;;;;;;18.31;99.20;98012.41;79546;1300;3015331;-68
2023/07/28 09:47:35;;;;;;;2.10;1.70;;;;;;;18.64;98.16;98016.79;79559;1295;3012047;-67
2023/07/28 09:50:08;;;;;;;1.80;1.60;;;;;;;18.87;95.94;98011.77;78358;1295;3056147;-68
2023/07/28 09:52:37;;;;;;;5.70;2.00;;;;;;;18.66;97.02;98013.14;79587;1300;3011585;-69
2023/07/28 09:55:16;;;;;;;2.00;1.40;;;;;;;18.45;98.34;98014.48;78426;1296;3054826;-68
2023/07/28 09:57:51;;;;;;;1.90;1.30;;;;;;;18.47;99.09;98015.66;78437;1294;3051339;-69
2023/07/28 10:00:21;;;;;;;3.20;1.60;;;;;;;18.88;96.52;98015.14;79268;1298;3011450;-68
2023/07/28 10:02:47;;;;;;;2.20;1.30;;;;;;;18.70;96.70;98014.67;79635;1301;3013455;-70
2023/07/28 10:05:15;;;;;;;3.40;2.00;;;;;;;18.63;96.68;98012.80;79658;1299;3011449;-69
2023/07/28 10:07:43;;;;;;;3.30;1.60;;;;;;;18.57;97.27;98013.25;78320;1295;3051371;-66
2023/07/28 10:10:12;;;;;;;2.50;1.50;;;;;;;18.85;96.76;98008.98;79577;1300;3013431;-70
2023/07/28 10:12:57;;;;;;;2.20;1.80;;;;;;;19.10;94.65;98008.95;79562;1294;3011673;-68
2023/07/28 10:15:31;;;;;;;2.90;2.10;;;;;;;18.78;95.52;98009.67;78361;1298;3050642;-69
2023/07/28 10:17:59;;;;;;;1.70;1.30;;;;;;;18.47;97.71;98014.86;79635;1298;3011597;-67
2023/07/28 10:20:34;;;;;;;1.70;1.50;;;;;;;18.59;98.11;98019.48;78439;1298;3053738;-68
2023/07/28 10:23:12;;;;;;;3.00;1.80;;;;;;;18.82;96.65;98024.98;79062;1300;3012900;-68
2023/07/28 10:25:41;;;;;;;3.70;2.10;;;;;;;18.77;96.23;98021.78;78225;1301;3070448;-69
2023/07/28 10:28:38;;;;;;;3.50;1.30;;;;;;;18.62;97.33;98024.02;79427;1298;3013612;-68
2023/07/28 10:31:06;;;;;;;2.80;1.90;;;;;;;18.75;97.49;98022.55;78385;1295;3048586;-68
2023/07/28 10:33:40;;;;;;;1.90;1.70;;;;;;;19.06;95.20;98022.81;79765;1296;3012364;-69
2023/07/28 10:36:33;;;;;;;2.40;1.90;;;;;;;19.02;94.66;98028.23;78314;1300;3051944;-68
2023/07/28 10:39:16;;;;;;;1.80;1.30;;;;;;;18.65;97.32;98032.27;78403;1298;3052846;-68
2023/07/28 10:42:07;;;;;;;3.00;1.40;;;;;;;18.87;97.05;98025.22;78381;1298;3069779;-69
2023/07/28 10:44:34;;;;;;;1.90;1.40;;;;;;;19.17;94.56;98028.09;78413;1294;3053763;-67
2023/07/28 10:47:01;;;;;;;2.50;1.40;;;;;;;18.90;95.88;98024.88;79544;1299;3013660;-66
2023/07/28 10:49:28;;;;;;;6.30;1.20;;;;;;;18.80;96.98;98026.94;79541;1299;3011869;-66
2023/07/28 10:51:56;;;;;;;1.50;1.20;;;;;;;18.98;97.04;98018.08;78342;1298;3026628;-66
2023/07/28 10:54:22;;;;;;;1.70;1.20;;;;;;;19.29;94.70;98025.39;79632;1300;3018624;-67
2023/07/28 10:56:49;;;;;;;3.30;1.30;;;;;;;18.95;96.25;98037.27;79642;1298;3011627;-69
2023/07/28 10:59:17;;;;;;;2.40;1.50;;;;;;;18.85;97.18;98025.60;78461;1295;3026322;-67
2023/07/28 11:01:43;;;;;;;4.00;1.10;;;;;;;19.04;97.68;98021.31;79632;1295;3013975;-69
2023/07/28 11:04:15;;;;;;;1.70;1.20;;;;;;;19.44;95.37;98021.69;79662;1298;3013347;-68
2023/07/28 11:06:49;;;;;;;2.30;1.10;;;;;;;19.37;94.90;98029.63;78395;1299;3050656;-67
2023/07/28 11:09:21;;;;;;;1.90;1.00;;;;;;;19.10;95.83;98036.06;79111;1295;3011954;-66
2023/07/28 11:11:49;;;;;;;1.70;1.10;;;;;;;19.09;96.77;98040.23;79767;1296;3013140;-68
2023/07/28 11:14:17;;;;;;;1.30;1.00;;;;;;;19.31;95.55;98036.56;78396;1300;3026141;-68
2023/07/28 11:16:50;;;;;;;1.20;1.10;;;;;;;19.41;94.98;98036.62;79683;1295;3014597;-68
2023/07/28 11:19:24;;;;;;;1.40;1.10;;;;;;;19.30;95.21;98034.02;78371;1300;3056835;-68
2023/07/28 11:21:51;;;;;;;9.40;1.20;;;;;;;19.31;95.44;98034.42;79665;1295;3011997;-71
2023/07/28 11:24:20;;;;;;;1.60;1.30;;;;;;;19.66;93.95;98049.67;78374;1301;3053503;-65
2023/07/28 11:26:46;;;;;;;1.70;1.60;;;;;;;19.70;93.10;98044.27;79817;1299;3014568;-67
2023/07/28 11:29:13;;;;;;;3.00;1.80;;;;;;;19.42;94.80;98052.07;79591;1298;3013576;-64
2023/07/28 11:31:41;;;;;;;2.30;1.30;;;;;;;19.37;95.33;98052.52;78149;1300;3068970;-65
2023/07/28 11:34:17;;;;;;;1.60;1.50;;;;;;;19.42;95.94;98059.42;79407;1294;3013377;-66
2023/07/28 11:36:44;;;;;;;2.30;2.10;;;;;;;19.58;94.65;98063.04;78257;1300;3049032;-65
2023/07/28 11:39:12;;;;;;;2.30;2.10;;;;;;;19.52;95.11;98061.77;79578;1300;3018900;-67
2023/07/28 11:41:38;;;;;;;3.00;2.10;;;;;;;19.35;96.22;98066.27;79426;1299;3011444;-69
2023/07/28 11:44:06;;;;;;;2.00;1.70;;;;;;;19.35;97.10;98074.09;78228;1300;3025937;-67
2023/07/28 11:46:33;;;;;;;2.90;1.70;;;;;;;19.59;95.98;98072.61;79570;1300;3018890;-65
2023/07/28 11:49:26;;;;;;;3.30;2.10;;;;;;;19.56;95.27;98089.66;79563;1294;3011524;-67
2023/07/28 11:51:55;;;;;;;1.70;1.50;;;;;;;19.42;95.57;98082.79;78425;1298;3050251;-65
2023/07/28 11:54:22;;;;;;;2.40;1.60;;;;;;;19.24;96.79;98092.26;79640;1308;3013209;-68
2023/07/28 11:56:49;;;;;;;4.70;2.30;;;;;;;19.76;94.75;98084.81;79626;1299;3013030;-69
2023/07/28 11:59:18;;;;;;;3.80;2.70;;;;;;;19.79;94.45;98093.36;78343;1295;3053647;-69
2023/07/28 12:01:58;;;;;;;3.00;2.50;;;;;;;19.65;94.69;98097.27;79668;1298;3013130;-69
2023/07/28 12:04:30;;;;;;;3.50;2.10;;;;;;;19.33;95.45;98110.04;78557;1298;3056394;-67
2023/07/28 12:07:06;;;;;;;3.50;2.20;;;;;;;19.72;93.65;98094.84;79534;1299;3013032;-68
2023/07/28 12:09:46;;;;;;;4.50;3.00;;;;;;;19.52;93.84;98110.34;78397;1294;3053327;-66
2023/07/28 12:12:15;;;;;;;6.50;3.30;;;;;;;19.22;95.61;98105.27;78415;1298;3048549;-66
2023/07/28 12:14:41;;;;;;;4.40;2.60;;;;;;;19.08;97.06;98103.59;79660;1298;3011711;-67
2023/07/28 12:17:15;;;;;;;12.10;2.40;;;;;;;19.41;96.05;98090.56;79607;1300;3011571;-67
2023/07/28 12:19:59;;;;;;;4.20;2.60;;;;;;;19.46;94.43;98117.67;78424;1296;3054506;-66
2023/07/28 12:22:27;;;;;;;5.20;2.40;;;;;;;19.16;96.18;98112.73;78353;1298;3055105;-66
2023/07/28 12:24:54;;;;;;;10.50;2.20;;;;;;;18.86;97.41;98105.89;79520;1301;3013679;-65
2023/07/28 12:27:23;;;;;;;3.40;1.90;;;;;;;18.85;98.38;98121.64;79610;1301;3011602;-68
2023/07/28 12:29:51;;;;;;;4.00;2.70;;;;;;;19.08;96.82;98131.00;78292;1298;3052395;-67
2023/07/28 12:32:18;;;;;;;5.70;2.90;;;;;;;18.97;96.98;98110.13;79572;1308;3013512;-65
2023/07/28 12:34:44;;;;;;;4.10;2.60;;;;;;;18.80;98.29;98119.51;79373;1307;3011487;-68
2023/07/28 12:37:12;;;;;;;3.80;2.30;;;;;;;18.74;98.82;98123.39;78470;1298;3026528;-70
2023/07/28 12:39:39;;;;;;;2.70;2.10;;;;;;;19.13;95.93;98126.73;79735;1295;3018526;-64
2023/07/28 12:42:07;;;;;;;2.80;2.10;;;;;;;18.94;95.71;98122.91;79587;1299;3013208;-67
2023/07/28 12:44:35;;;;;;;2.80;1.90;;;;;;;18.66;97.07;98126.05;78444;1300;3053595;-66
2023/07/28 12:47:02;;;;;;;3.40;1.50;;;;;;;18.49;97.50;98127.05;79526;1299;3018726;-68
2023/07/28 12:49:30;;;;;;;3.40;1.50;;;;;;;18.61;97.06;98129.84;79471;1295;3011760;-68
2023/07/28 12:51:58;;;;;;;2.20;1.70;;;;;;;18.69;96.33;98127.73;78374;1294;3057024;-67
2023/07/28 12:54:25;;;;;;;2.00;1.80;;;;;;;18.53;96.99;98135.19;79544;1298;3015129;-70
2023/07/28 12:56:53;;;;;;;1.50;1.40;;;;;;;18.27;98.15;98139.64;79576;1298;3011741;-65
2023/07/28 12:59:21;;;;;;;4.90;1.60;;;;;;;18.40;98.86;98143.74;78406;1300;3053441;-67
2023/07/28 13:01:47;;;;;;;4.00;1.50;;;;;;;18.54;97.45;98149.74;79577;1295;3013185;-68
2023/07/28 13:04:14;;;;;;;3.90;2.20;;;;;;;18.47;96.66;98158.80;79515;1300;3011479;-66
2023/07/28 13:06:42;;;;;;;4.00;2.10;;;;;;;18.21;98.65;98151.76;78318;1300;3026568;-68
2023/07/28 13:09:09;;;;;;;2.60;1.90;;;;;;;18.20;98.98;98159.71;79596;1300;3013066;-64
2023/07/28 13:11:35;;;;;;;2.00;1.60;;;;;;;18.74;95.67;98163.17;79402;1295;3013126;-65
2023/07/28 13:14:03;;;;;;;4.40;1.80;;;;;;;18.53;95.12;98159.69;78257;1299;3028428;-66
2023/07/28 13:16:31;;;;;;;2.30;1.40;;;;;;;18.37;96.22;98171.98;79535;1295;3013558;-71
2023/07/28 13:18:59;;;;;;;2.10;1.30;;;;;;;18.27;96.39;98158.55;79512;1295;3011363;-67
2023/07/28 13:21:27;;;;;;;2.70;1.40;;;;;;;18.76;94.03;98159.56;78408;1297;3056417;-67
2023/07/28 13:23:54;;;;;;;2.30;1.40;;;;;;;18.63;93.70;98174.28;79668;1294;3013219;-70
2023/07/28 13:26:20;;;;;;;2.30;1.40;;;;;;;18.55;94.16;98172.64;79575;1294;3011412;-65
2023/07/28 13:28:48;;;;;;;1.90;1.30;;;;;;;18.36;95.54;98187.44;78280;1299;3027906;-68
2023/07/28 13:31:17;;;;;;;3.70;2.10;;;;;;;18.71;93.93;98180.89;79577;1298;3013575;-65
2023/07/28 13:33:46;;;;;;;5.50;2.80;;;;;;;18.75;93.25;98185.35;79170;1295;3011660;-65
2023/07/28 13:36:13;;;;;;;5.40;3.50;;;;;;;18.60;93.20;98200.25;79479;1299;3018744;-66
2023/07/28 13:38:40;;;;;;;6.30;3.30;;;;;;;18.33;95.71;98191.75;79573;1300;3013240;-70
2023/07/28 13:41:08;;;;;;;6.50;4.30;;;;;;;18.40;96.10;98190.17;78300;1295;3052315;-68
2023/07/28 13:43:37;;;;;;;6.20;4.50;;;;;;;18.79;93.78;98197.89;79444;1300;3013557;-69
2023/07/28 13:46:04;;;;;;;11.00;6.20;;;;;;;18.77;92.95;98201.09;79652;1300;3012530;-68
2023/07/28 13:48:33;;;;;;;10.90;5.40;;;;;;;18.54;93.91;98207.55;78451;1295;3069310;-66
2023/07/28 13:50:59;;;;;;;7.80;3.70;;;;;;;18.30;94.92;98217.60;79618;1294;3013072;-68
2023/07/28 13:53:27;;;;;;;8.80;4.80;;;;;;;18.43;95.19;98208.27;79625;1295;3011839;-67
2023/07/28 13:55:55;;;;;;;8.90;5.20;;;;;;;18.79;92.49;98215.55;78419;1299;3053635;-66
2023/07/28 13:58:22;;;;;;;9.40;5.50;;;;;;;18.50;93.72;98225.66;79521;1317;3013230;-67
2023/07/28 14:00:49;;;;;;;12.50;5.60;;;;;;;18.38;94.38;98228.77;79487;1297;3011641;-69
2023/07/28 14:03:17;;;;;;;10.90;4.80;;;;;;;18.39;94.69;98231.86;78322;1299;3028602;-65
2023/07/28 14:05:44;;;;;;;10.90;4.90;;;;;;;18.85;92.66;98230.19;79301;1295;3013311;-66
2023/07/28 14:08:11;;;;;;;9.40;4.70;;;;;;;18.89;91.83;98239.98;79719;1294;3011923;-68
2023/07/28 14:10:43;;;;;;;8.70;4.70;;;;;;;18.67;92.38;98245.31;78285;1295;3054262;-68
2023/07/28 14:13:10;;;;;;;9.70;3.40;;;;;;;18.41;93.65;98253.55;79482;1300;3011997;-65
2023/07/28 14:15:38;;;;;;;6.20;2.70;;;;;;;18.47;94.00;98257.19;78458;1295;3051809;-68
2023/07/28 14:18:05;;;;;;;4.90;3.50;;;;;;;18.72;92.14;98254.90;79568;1298;3014607;-67
2023/07/28 14:20:31;;;;;;;7.90;3.70;;;;;;;18.77;91.76;98258.89;79571;1294;3011962;-65
2023/07/28 14:23:00;;;;;;;5.50;2.60;;;;;;;18.52;93.13;98278.73;78464;1298;3055884;-68
2023/07/28 14:25:27;;;;;;;6.20;2.60;;;;;;;18.43;93.95;98266.68;79645;1298;3011603;-68
2023/07/28 14:27:53;;;;;;;5.40;2.90;;;;;;;18.86;92.14;98278.13;79664;1298;3013117;-66
2023/07/28 14:30:21;;;;;;;6.40;3.00;;;;;;;19.07;89.67;98273.34;78459;1298;3053532;-68
2023/07/28 14:32:48;;;;;;;6.50;3.90;;;;;;;18.81;90.03;98289.14;79632;1299;3013515;-68
2023/07/28 14:35:14;;;;;;;9.40;2.50;;;;;;;18.49;92.11;98279.41;79554;1294;3011627;-68
2023/07/28 14:37:42;;;;;;;12.90;3.20;;;;;;;18.45;92.26;98283.59;78348;1296;3027095;-68
2023/07/28 14:40:09;;;;;;;7.60;2.80;;;;;;;18.87;90.56;98276.27;79605;1294;3013475;-70
2023/07/28 14:42:36;;;;;;;5.60;2.50;;;;;;;18.98;89.58;98295.41;79658;1295;3013196;-67
2023/07/28 14:45:05;;;;;;;5.60;3.20;;;;;;;18.84;89.59;98284.23;78356;1297;3028298;-69
2023/07/28 14:47:32;;;;;;;3.70;2.60;;;;;;;18.66;90.54;98290.83;79590;1294;3012920;-67
2023/07/28 14:49:59;;;;;;;4.50;2.70;;;;;;;18.44;91.53;98288.30;79594;1298;3013523;-67
2023/07/28 14:52:27;;;;;;;6.60;2.90;;;;;;;18.94;90.09;98286.70;78336;1300;3054998;-64
2023/07/28 14:54:53;;;;;;;5.40;2.30;;;;;;;19.10;88.65;98288.06;79573;1298;3013499;-64
2023/07/28 14:57:20;;;;;;;4.70;2.60;;;;;;;19.10;87.91;98303.59;79666;1295;3011536;-68
2023/07/28 14:59:48;;;;;;;5.20;2.70;;;;;;;18.97;88.11;98304.21;78581;1298;3026483;-67
2023/07/28 15:02:14;;;;;;;3.90;2.10;;;;;;;18.84;88.85;98314.30;79608;1298;3019538;-67
2023/07/28 15:04:41;;;;;;;5.70;3.00;;;;;;;19.42;86.88;98294.29;79597;1295;3012164;-64
2023/07/28 15:07:08;;;;;;;4.40;2.20;;;;;;;19.36;86.33;98303.72;78374;1295;3027751;-69
2023/07/28 15:09:35;;;;;;;5.50;2.70;;;;;;;19.36;86.32;98323.25;79670;1294;3013273;-67
2023/07/28 15:12:02;;;;;;;5.90;3.30;;;;;;;19.10;86.75;98318.05;79669;1295;3011664;-67
2023/07/28 15:14:30;;;;;;;6.20;2.90;;;;;;;18.92;87.59;98321.09;78633;1298;3028817;-68
2023/07/28 15:16:56;;;;;;;10.30;5.30;;;;;;;18.97;87.74;98321.06;79638;1298;3013039;-65
2023/07/28 15:19:23;;;;;;;9.50;5.00;;;;;;;19.31;85.82;98322.94;79682;1295;3013193;-64
2023/07/28 15:21:51;;;;;;;10.90;4.40;;;;;;;19.28;86.05;98324.32;78178;1294;3026085;-68
2023/07/28 15:24:19;;;;;;;5.70;3.70;;;;;;;19.25;85.77;98325.33;79670;1295;3012986;-65
2023/07/28 15:26:47;;;;;;;4.40;2.80;;;;;;;19.07;86.34;98343.17;79573;1295;3013203;-65
2023/07/28 15:29:16;;;;;;;5.10;2.80;;;;;;;19.04;86.68;98327.88;78510;1299;3052788;-64
2023/07/28 15:31:42;;;;;;;4.40;2.60;;;;;;;19.44;85.03;98333.95;79692;1294;3012954;-69
2023/07/28 15:34:09;;;;;;;5.50;2.80;;;;;;;19.60;84.12;98335.73;79585;1295;3011699;-65
2023/07/28 15:36:37;;;;;;;6.50;2.90;;;;;;;19.47;84.00;98335.22;78323;1299;3056053;-67
2023/07/28 15:39:03;;;;;;;3.80;2.50;;;;;;;19.31;84.87;98345.76;79591;1295;3012679;-67
2023/07/28 15:41:30;;;;;;;8.60;2.40;;;;;;;19.19;85.42;98358.81;79702;1298;3012851;-66
2023/07/28 15:43:58;;;;;;;4.10;2.40;;;;;;;19.29;85.27;98350.30;78339;1299;3028442;-65
2023/07/28 15:46:24;;;;;;;3.20;2.20;;;;;;;19.50;84.18;98351.45;79593;1299;3013340;-64
2023/07/28 15:48:51;;;;;;;3.10;2.10;;;;;;;19.56;83.51;98353.74;79829;1294;3011586;-65
2023/07/28 15:51:19;;;;;;;4.20;2.70;;;;;;;19.46;83.44;98356.18;78458;1299;3026954;-67
2023/07/28 15:53:45;;;;;;;5.30;2.30;;;;;;;19.35;83.79;98363.30;79902;1294;3013599;-66
2023/07/28 15:56:12;;;;;;;6.40;3.00;;;;;;;19.33;84.55;98373.64;79584;1295;3011831;-65
2023/07/28 15:58:39;;;;;;;6.10;3.40;;;;;;;19.74;82.45;98377.33;78267;1300;3026070;-67
2023/07/28 16:01:06;;;;;;;10.30;3.00;;;;;;;20.02;81.02;98373.81;79578;1298;3018755;-66
2023/07/28 16:03:32;;;;;;;6.90;3.80;;;;;;;20.03;80.48;98371.80;79613;1300;3011881;-65
2023/07/28 16:06:00;;;;;;;6.40;3.90;;;;;;;19.81;80.56;98381.47;78369;1295;3027259;-67
2023/07/28 16:08:27;;;;;;;6.20;3.50;;;;;;;19.72;81.26;98370.86;79575;1299;3018407;-66
2023/07/28 16:10:54;;;;;;;9.50;4.00;;;;;;;19.50;81.44;98383.14;79531;1299;3012127;-69
2023/07/28 16:13:21;;;;;;;6.20;3.50;;;;;;;19.45;82.69;98389.10;78391;1298;3026464;-68
2023/07/28 16:15:48;;;;;;;9.80;4.40;;;;;;;19.86;81.11;98401.83;79578;1294;3012934;-67
2023/07/28 16:18:14;;;;;;;11.90;5.30;;;;;;;20.14;79.32;98396.67;79995;1298;3011533;-71
2023/07/28 16:20:42;;;;;;;12.00;5.70;;;;;;;19.94;79.61;98406.90;78846;1295;3026947;-70
2023/07/28 16:23:09;;;;;;;10.70;4.70;;;;;;;19.77;80.15;98411.38;79596;1295;3013340;-66
2023/07/28 16:25:35;;;;;;;10.90;5.00;;;;;;;19.64;80.54;98404.33;79381;1295;3011341;-67
2023/07/28 16:28:03;;;;;;;10.40;4.20;;;;;;;19.51;80.66;98410.41;78159;1302;3027464;-67
2023/07/28 16:30:30;;;;;;;7.50;4.00;;;;;;;19.47;81.07;98409.07;79789;1300;3018587;-74
2023/07/28 16:32:56;;;;;;;12.30;4.10;;;;;;;19.48;80.77;98432.64;79589;1294;3012077;-65
2023/07/28 16:35:24;;;;;;;9.00;4.50;;;;;;;20.06;78.97;98411.55;78433;1294;3025919;-67
2023/07/28 16:37:51;;;;;;;12.70;4.70;;;;;;;20.25;77.22;98409.15;79569;1295;3013063;-68
2023/07/28 16:40:17;;;;;;;8.60;4.20;;;;;;;20.09;77.18;98414.64;79577;1295;3011576;-65
2023/07/28 16:42:45;;;;;;;11.30;5.40;;;;;;;19.90;77.81;98415.68;78355;1300;3026513;-63